createdAt,value
2023-03-15T00:01:46.963Z,4.65
2023-03-15T00:04:14.449Z,5.17
2023-03-15T00:06:41.136Z,5.53
2023-03-15T00:09:07.940Z,5.36
2023-03-15T00:11:34.744Z,5.24
2023-03-15T00:14:02.573Z,5.64
2023-03-15T00:16:29.418Z,5.51
2023-03-15T00:18:56.716Z,5.35
2023-03-15T00:21:23.411Z,5.33
2023-03-15T00:23:50.633Z,5.48
2023-03-15T00:26:17.513Z,5.47
2023-03-15T00:28:44.656Z,5.37
2023-03-15T00:31:18.007Z,5.26
2023-03-15T00:33:45.481Z,5.35
2023-03-15T00:36:12.955Z,5.26
2023-03-15T00:38:41.054Z,5.18
2023-03-15T00:41:12.989Z,4.89
2023-03-15T00:43:41.124Z,5.28
2023-03-15T00:46:08.314Z,5.45
2023-03-15T00:48:35.859Z,5.41
2023-03-15T00:51:09.547Z,5.17
2023-03-15T00:53:38.997Z,5.25
2023-03-15T00:56:08.169Z,5.34
2023-03-15T00:58:34.850Z,5.50
2023-03-15T01:01:05.911Z,5.35
2023-03-15T01:03:33.128Z,5.55
2023-03-15T01:06:05.990Z,5.41
2023-03-15T01:08:33.428Z,5.07
2023-03-15T01:11:05.719Z,5.17
2023-03-15T01:13:32.801Z,5.27
2023-03-15T01:15:59.668Z,5.20
2023-03-15T01:18:26.637Z,5.34
2023-03-15T01:20:53.470Z,5.27
2023-03-15T01:23:20.156Z,5.29
2023-03-15T01:25:47.720Z,5.22
2023-03-15T01:28:14.266Z,5.09
2023-03-15T01:30:41.293Z,5.22
2023-03-15T01:33:07.869Z,5.06
2023-03-15T01:35:34.430Z,5.11
2023-03-15T01:38:01.109Z,4.82
2023-03-15T01:40:30.525Z,4.94
2023-03-15T01:43:06.160Z,5.17
2023-03-15T01:46:03.653Z,5.26
2023-03-15T01:48:45.006Z,5.18
2023-03-15T01:51:41.715Z,5.34
2023-03-15T01:54:16.697Z,5.24
2023-03-15T01:56:50.702Z,5.29
2023-03-15T01:59:27.154Z,5.34
2023-03-15T02:01:55.431Z,5.34
2023-03-15T02:04:28.736Z,5.11
2023-03-15T02:06:59.229Z,4.95
2023-03-15T02:09:44.132Z,4.92
2023-03-15T02:12:11.129Z,4.77
2023-03-15T02:14:38.403Z,4.41
2023-03-15T02:17:07.418Z,4.77
2023-03-15T02:20:00.289Z,5.09
2023-03-15T02:22:53.270Z,5.03
2023-03-15T02:25:36.092Z,4.93
2023-03-15T02:28:06.841Z,5.11
2023-03-15T02:30:33.951Z,5.10
2023-03-15T02:33:06.781Z,5.09
2023-03-15T02:35:33.681Z,5.14
2023-03-15T02:38:02.682Z,5.10
2023-03-15T02:40:30.681Z,5.17
2023-03-15T02:43:11.590Z,5.05
2023-03-15T02:45:39.303Z,4.83
2023-03-15T02:48:07.368Z,4.93
2023-03-15T02:50:33.957Z,5.02
2023-03-15T02:53:02.947Z,4.71
2023-03-15T02:55:32.621Z,4.50
2023-03-15T02:58:00.637Z,4.67
2023-03-15T03:00:28.575Z,4.93
2023-03-15T03:02:57.746Z,4.67
2023-03-15T03:05:25.603Z,4.66
2023-03-15T03:07:52.209Z,4.66
2023-03-15T03:10:20.406Z,4.91
2023-03-15T03:12:54.462Z,4.76
2023-03-15T03:15:29.018Z,4.42
2023-03-15T03:17:55.588Z,3.98
2023-03-15T03:20:23.429Z,4.20
2023-03-15T03:22:50.126Z,4.48
2023-03-15T03:25:18.105Z,4.48
2023-03-15T03:27:46.559Z,4.57
2023-03-15T03:30:14.202Z,4.40
2023-03-15T03:32:45.934Z,4.35
2023-03-15T03:35:15.596Z,4.05
2023-03-15T03:37:42.921Z,4.41
2023-03-15T03:40:17.250Z,3.55
2023-03-15T03:42:44.157Z,3.61
2023-03-15T03:45:11.285Z,3.84
2023-03-15T03:47:42.310Z,3.47
2023-03-15T03:50:10.740Z,3.66
2023-03-15T03:52:37.448Z,2.88
2023-03-15T03:55:07.807Z,3.36
2023-03-15T03:57:34.409Z,3.48
2023-03-15T04:00:01.188Z,3.63
2023-03-15T04:02:30.667Z,3.86
2023-03-15T04:05:01.912Z,4.32
2023-03-15T04:07:28.510Z,3.50
2023-03-15T04:09:55.524Z,3.82
2023-03-15T04:12:22.233Z,4.11
2023-03-15T04:14:48.899Z,4.21
2023-03-15T04:17:17.945Z,4.39
2023-03-15T04:19:47.370Z,4.35
2023-03-15T04:22:17.839Z,4.27
2023-03-15T04:25:10.643Z,4.31
2023-03-15T04:27:43.029Z,4.12
2023-03-15T04:30:30.606Z,3.87
2023-03-15T04:33:06.325Z,3.71
2023-03-15T04:35:54.410Z,3.98
2023-03-15T04:38:48.432Z,3.69
2023-03-15T04:41:38.771Z,4.11
2023-03-15T04:44:27.465Z,4.35
2023-03-15T04:47:03.067Z,4.45
2023-03-15T04:49:38.573Z,4.39
2023-03-15T04:52:25.347Z,4.29
2023-03-15T04:55:12.875Z,4.40
2023-03-15T04:57:58.296Z,4.33
2023-03-15T05:00:33.599Z,4.24
2023-03-15T05:03:26.562Z,4.12
2023-03-15T05:06:11.799Z,4.01
2023-03-15T05:09:04.674Z,3.85
2023-03-15T05:11:31.325Z,3.79
2023-03-15T05:14:27.105Z,3.95
2023-03-15T05:17:17.050Z,4.08
2023-03-15T05:20:02.254Z,4.04
2023-03-15T05:22:48.845Z,3.83
2023-03-15T05:25:34.819Z,3.46
2023-03-15T05:28:24.249Z,3.45
2023-03-15T05:31:23.964Z,3.20
2023-03-15T05:34:08.936Z,3.46
2023-03-15T05:36:54.027Z,3.21
2023-03-15T05:39:29.850Z,3.51
2023-03-15T05:42:15.818Z,3.07
2023-03-15T05:44:57.278Z,3.63
2023-03-15T05:47:29.646Z,3.77
2023-03-15T05:50:09.061Z,3.66
2023-03-15T05:52:57.107Z,3.84
2023-03-15T05:55:31.072Z,3.74
2023-03-15T05:58:14.313Z,3.81
2023-03-15T06:00:43.638Z,4.04
2023-03-15T06:03:22.430Z,4.00
2023-03-15T06:05:58.976Z,3.61
2023-03-15T06:08:34.286Z,3.45
2023-03-15T06:11:00.882Z,3.25
2023-03-15T06:13:28.070Z,3.24
2023-03-15T06:15:54.901Z,3.28
2023-03-15T06:18:22.058Z,3.01
2023-03-15T06:20:50.206Z,3.15
2023-03-15T06:23:18.365Z,3.39
2023-03-15T06:25:47.291Z,3.25
2023-03-15T06:28:14.830Z,3.21
2023-03-15T06:30:48.208Z,2.15
2023-03-15T06:33:15.111Z,2.34
2023-03-15T06:35:41.761Z,1.73
2023-03-15T06:38:09.406Z,1.98
2023-03-15T06:40:37.728Z,2.37
2023-03-15T06:43:06.513Z,2.41
2023-03-15T06:45:34.563Z,2.83
2023-03-15T06:48:01.824Z,3.24
2023-03-15T06:50:34.402Z,3.24
2023-03-15T06:53:07.270Z,3.23
2023-03-15T06:55:33.919Z,2.40
2023-03-15T06:58:00.652Z,2.61
2023-03-15T07:00:27.298Z,2.47
2023-03-15T07:02:53.930Z,2.26
2023-03-15T07:05:20.729Z,2.15
2023-03-15T07:07:47.303Z,2.38
2023-03-15T07:10:13.916Z,2.91
2023-03-15T07:12:40.448Z,2.55
2023-03-15T07:15:07.452Z,2.59
2023-03-15T07:17:34.559Z,2.16
2023-03-15T07:20:01.145Z,2.60
2023-03-15T07:22:28.002Z,2.35
2023-03-15T07:24:54.628Z,2.08
2023-03-15T07:27:21.160Z,2.26
2023-03-15T07:29:48.542Z,2.18
2023-03-15T07:32:15.202Z,2.53
2023-03-15T07:34:41.808Z,2.36
2023-03-15T07:37:08.735Z,2.33
2023-03-15T07:39:35.395Z,2.19
2023-03-15T07:42:01.936Z,2.27
2023-03-15T07:44:38.355Z,2.43
2023-03-15T07:47:04.914Z,2.31
2023-03-15T07:49:31.854Z,2.41
2023-03-15T07:51:58.409Z,2.50
2023-03-15T07:54:24.968Z,2.29
2023-03-15T07:56:51.491Z,2.31
2023-03-15T07:59:18.165Z,2.65
2023-03-15T08:01:44.774Z,2.58
2023-03-15T08:04:11.348Z,2.48
2023-03-15T08:06:37.908Z,2.56
2023-03-15T08:09:05.745Z,2.56
2023-03-15T08:11:33.598Z,2.86
2023-03-15T08:14:00.138Z,2.67
2023-03-15T08:16:26.876Z,2.94
2023-03-15T08:18:53.496Z,2.61
2023-03-15T08:21:20.137Z,2.34
2023-03-15T08:23:46.681Z,2.57
2023-03-15T08:26:13.256Z,2.92
2023-03-15T08:28:39.867Z,2.91
2023-03-15T08:31:10.199Z,2.85
2023-03-15T08:33:36.815Z,2.87
2023-03-15T08:36:03.595Z,3.18
2023-03-15T08:38:30.179Z,2.92
2023-03-15T08:40:57.780Z,2.99
2023-03-15T08:43:24.518Z,3.29
2023-03-15T08:46:00.663Z,3.01
2023-03-15T08:48:28.248Z,3.41
2023-03-15T08:50:54.867Z,3.12
2023-03-15T08:53:21.413Z,3.59
2023-03-15T08:55:49.615Z,3.40
2023-03-15T08:58:16.197Z,3.51
2023-03-15T09:00:42.780Z,3.40
2023-03-15T09:03:09.375Z,3.41
2023-03-15T09:05:36.873Z,3.53
2023-03-15T09:08:03.608Z,3.72
2023-03-15T09:10:30.395Z,3.87
2023-03-15T09:12:57.136Z,3.97
2023-03-15T09:15:23.737Z,3.83
2023-03-15T09:17:51.622Z,3.73
2023-03-15T09:20:21.786Z,4.04
2023-03-15T09:22:54.429Z,4.03
2023-03-15T09:25:22.229Z,4.06
2023-03-15T09:27:49.268Z,4.01
2023-03-15T09:30:16.399Z,3.95
2023-03-15T09:32:44.025Z,4.16
2023-03-15T09:35:14.642Z,4.03
2023-03-15T09:37:42.401Z,4.17
2023-03-15T09:40:34.622Z,3.82
2023-03-15T09:43:07.316Z,4.06
2023-03-15T09:46:12.514Z,3.93
2023-03-15T09:48:54.512Z,4.19
2023-03-15T09:51:39.365Z,4.17
2023-03-15T09:54:23.714Z,4.23
2023-03-15T09:57:03.211Z,4.25
2023-03-15T09:59:37.660Z,4.20
2023-03-15T10:02:28.354Z,4.51
2023-03-15T10:05:01.272Z,4.38
2023-03-15T10:07:28.208Z,4.47
2023-03-15T10:09:58.387Z,4.61
2023-03-15T10:12:33.257Z,4.59
2023-03-15T10:15:18.320Z,4.42
2023-03-15T10:18:18.012Z,4.62
2023-03-15T10:20:58.849Z,4.56
2023-03-15T10:23:53.056Z,4.67
2023-03-15T10:26:25.464Z,4.93
2023-03-15T10:28:53.516Z,4.83
2023-03-15T10:31:43.370Z,4.93
2023-03-15T10:34:13.796Z,4.86
2023-03-15T10:36:49.839Z,4.57
2023-03-15T10:39:16.722Z,4.78
2023-03-15T10:41:46.672Z,4.90
2023-03-15T10:44:17.276Z,4.93
2023-03-15T10:47:04.638Z,5.09
2023-03-15T10:49:36.355Z,5.09
2023-03-15T10:52:04.180Z,4.80
2023-03-15T10:54:33.398Z,5.10
2023-03-15T10:57:04.822Z,5.05
2023-03-15T10:59:34.640Z,5.49
2023-03-15T11:02:13.867Z,5.49
2023-03-15T11:04:49.404Z,5.50
2023-03-15T11:07:15.969Z,5.34
2023-03-15T11:09:45.648Z,5.50
2023-03-15T11:12:41.325Z,5.73
2023-03-15T11:15:16.623Z,5.68
2023-03-15T11:17:49.286Z,5.78
2023-03-15T11:20:36.507Z,5.06
2023-03-15T11:23:20.484Z,5.17
2023-03-15T11:25:47.440Z,5.31
2023-03-15T11:28:18.682Z,5.36
2023-03-15T11:30:48.553Z,5.26
2023-03-15T11:33:43.630Z,5.59
2023-03-15T11:36:20.548Z,5.72
2023-03-15T11:38:47.502Z,5.44
2023-03-15T11:41:55.158Z,5.61
2023-03-15T11:44:37.769Z,5.59
2023-03-15T11:47:09.970Z,5.83
2023-03-15T11:50:03.834Z,5.36
2023-03-15T11:52:30.525Z,5.62
2023-03-15T11:55:03.542Z,5.60
2023-03-15T11:57:38.143Z,5.73
2023-03-15T12:00:26.967Z,5.89
2023-03-15T12:02:55.678Z,5.69
2023-03-15T12:05:52.858Z,5.95
2023-03-15T12:08:22.333Z,5.93
2023-03-15T12:10:50.612Z,5.93
2023-03-15T12:13:29.249Z,5.81
2023-03-15T12:15:56.320Z,5.76
2023-03-15T12:18:32.155Z,5.81
2023-03-15T12:21:15.554Z,5.90
2023-03-15T12:23:55.338Z,5.98
2023-03-15T12:26:32.439Z,5.85
2023-03-15T12:28:58.949Z,6.27
2023-03-15T12:31:25.938Z,6.51
2023-03-15T12:33:57.718Z,6.21
2023-03-15T12:36:45.171Z,6.69
2023-03-15T12:39:17.349Z,6.71
2023-03-15T12:41:50.236Z,6.89
2023-03-15T12:44:31.834Z,6.66
2023-03-15T12:47:00.853Z,6.88
2023-03-15T12:49:27.342Z,6.72
2023-03-15T12:52:00.120Z,6.38
2023-03-15T12:54:51.069Z,6.28
2023-03-15T12:57:22.018Z,6.56
2023-03-15T12:59:55.555Z,6.68
2023-03-15T13:02:45.558Z,6.40
2023-03-15T13:05:18.034Z,6.50
2023-03-15T13:08:16.276Z,6.52
2023-03-15T13:11:15.814Z,6.61
2023-03-15T13:13:55.307Z,6.86
2023-03-15T13:16:27.817Z,6.87
2023-03-15T13:19:17.456Z,6.84
2023-03-15T13:22:23.593Z,7.08
2023-03-15T13:24:58.266Z,7.27
2023-03-15T13:27:55.915Z,6.92
2023-03-15T13:30:28.449Z,7.03
2023-03-15T13:33:08.292Z,6.82
2023-03-15T13:35:43.973Z,6.82
2023-03-15T13:38:38.370Z,6.70
2023-03-15T13:41:06.682Z,6.72
2023-03-15T13:43:38.803Z,6.78
2023-03-15T13:46:06.181Z,6.67
2023-03-15T13:48:35.619Z,6.89
2023-03-15T13:51:13.036Z,7.02
2023-03-15T13:53:49.408Z,7.08
2023-03-15T13:56:20.404Z,7.03
2023-03-15T13:58:49.006Z,7.24
2023-03-15T14:01:17.112Z,7.12
2023-03-15T14:03:48.842Z,7.03
2023-03-15T14:06:23.763Z,7.25
2023-03-15T14:08:54.789Z,7.35
2023-03-15T14:11:24.004Z,7.63
2023-03-15T14:13:58.497Z,7.54
2023-03-15T14:17:01.260Z,7.51
2023-03-15T14:19:32.465Z,7.92
2023-03-15T14:22:02.018Z,7.99
2023-03-15T14:24:41.616Z,8.17
2023-03-15T14:27:14.574Z,8.15
2023-03-15T14:29:48.778Z,8.16
2023-03-15T14:32:28.707Z,8.15
2023-03-15T14:35:01.511Z,8.12
2023-03-15T14:37:37.045Z,7.94
2023-03-15T14:40:15.965Z,7.97
2023-03-15T14:42:45.457Z,7.69
2023-03-15T14:45:12.582Z,7.55
2023-03-15T14:47:55.526Z,7.71
2023-03-15T14:50:25.821Z,7.85
2023-03-15T14:52:54.147Z,7.89
2023-03-15T14:55:24.131Z,7.82
2023-03-15T14:57:51.528Z,7.54
2023-03-15T15:00:20.537Z,7.34
2023-03-15T15:02:55.175Z,7.55
2023-03-15T15:05:25.962Z,7.31
2023-03-15T15:07:56.639Z,7.24
2023-03-15T15:10:25.201Z,6.99
2023-03-15T15:13:04.821Z,7.00
2023-03-15T15:15:40.761Z,6.97
2023-03-15T15:18:14.244Z,7.19
2023-03-15T15:20:42.040Z,7.41
2023-03-15T15:23:18.839Z,6.90
2023-03-15T15:25:46.870Z,6.85
2023-03-15T15:28:27.336Z,6.73
2023-03-15T15:31:00.692Z,6.97
2023-03-15T15:33:27.674Z,7.06
2023-03-15T15:35:56.562Z,6.92
2023-03-15T15:38:38.160Z,7.12
2023-03-15T15:41:05.179Z,7.13
2023-03-15T15:43:33.560Z,6.97
2023-03-15T15:46:00.499Z,7.07
2023-03-15T15:48:27.182Z,7.21
2023-03-15T15:50:53.772Z,7.31
2023-03-15T15:53:20.497Z,7.20
2023-03-15T15:55:47.190Z,6.78
2023-03-15T15:58:14.162Z,6.84
2023-03-15T16:00:40.848Z,6.89
2023-03-15T16:03:15.037Z,6.89
2023-03-15T16:05:42.712Z,6.61
2023-03-15T16:08:21.333Z,6.70
2023-03-15T16:10:47.940Z,6.82
2023-03-15T16:13:14.848Z,6.75
2023-03-15T16:15:41.637Z,6.56
2023-03-15T16:18:11.801Z,6.62
2023-03-15T16:20:40.452Z,6.56
2023-03-15T16:23:10.629Z,6.66
2023-03-15T16:25:37.261Z,6.76
2023-03-15T16:28:05.203Z,6.76
2023-03-15T16:30:35.040Z,6.68
2023-03-15T16:33:01.633Z,6.56
2023-03-15T16:35:35.742Z,6.44
2023-03-15T16:38:06.063Z,6.59
2023-03-15T16:40:34.657Z,6.51
2023-03-15T16:43:01.306Z,6.65
2023-03-15T16:45:27.930Z,6.76
2023-03-15T16:47:56.263Z,6.59
2023-03-15T16:50:23.202Z,6.76
2023-03-15T16:52:54.010Z,6.77
2023-03-15T16:55:26.836Z,6.65
2023-03-15T16:57:53.937Z,6.45
2023-03-15T17:00:21.206Z,6.73
2023-03-15T17:02:54.352Z,6.74
2023-03-15T17:05:21.275Z,6.76
2023-03-15T17:07:49.719Z,6.82
2023-03-15T17:10:31.107Z,6.95
2023-03-15T17:13:00.376Z,6.87
2023-03-15T17:15:29.072Z,6.84
2023-03-15T17:17:58.609Z,6.84
2023-03-15T17:20:27.254Z,6.82
2023-03-15T17:22:58.032Z,6.83
2023-03-15T17:25:25.129Z,6.96
2023-03-15T17:27:51.980Z,6.73
2023-03-15T17:30:21.689Z,7.03
2023-03-15T17:32:48.344Z,6.96
2023-03-15T17:35:16.674Z,6.69
2023-03-15T17:37:44.799Z,6.90
2023-03-15T17:40:21.166Z,6.79
2023-03-15T17:42:49.168Z,7.08
2023-03-15T17:45:21.292Z,6.92
2023-03-15T17:47:49.347Z,6.77
2023-03-15T17:50:17.537Z,6.80
2023-03-15T17:52:44.974Z,7.00
2023-03-15T17:55:17.180Z,6.60
2023-03-15T17:57:53.998Z,6.52
2023-03-15T18:00:22.284Z,6.72
2023-03-15T18:02:55.578Z,6.63
2023-03-15T18:05:26.196Z,6.62
2023-03-15T18:08:00.468Z,6.64
2023-03-15T18:10:35.579Z,6.34
2023-03-15T18:13:02.609Z,6.38
2023-03-15T18:15:29.307Z,6.18
2023-03-15T18:17:55.981Z,6.24
2023-03-15T18:20:23.975Z,6.57
2023-03-15T18:22:50.875Z,6.43
2023-03-15T18:25:21.576Z,6.60
2023-03-15T18:27:49.662Z,6.01
2023-03-15T18:30:19.200Z,6.35
2023-03-15T18:32:45.903Z,6.52
2023-03-15T18:35:18.862Z,6.47
2023-03-15T18:37:45.734Z,6.47
2023-03-15T18:40:13.893Z,6.76
2023-03-15T18:42:42.053Z,6.51
2023-03-15T18:45:17.250Z,6.64
2023-03-15T18:47:43.820Z,6.50
2023-03-15T18:50:11.126Z,6.71
2023-03-15T18:52:37.736Z,6.80
2023-03-15T18:55:04.715Z,6.82
2023-03-15T18:57:31.248Z,6.21
2023-03-15T18:59:58.293Z,6.23
2023-03-15T19:02:25.069Z,6.36
2023-03-15T19:04:51.689Z,6.19
2023-03-15T19:07:18.224Z,6.10
2023-03-15T19:09:44.814Z,6.06
2023-03-15T19:12:11.388Z,6.20
2023-03-15T19:14:37.970Z,6.03
2023-03-15T19:17:04.684Z,6.00
2023-03-15T19:19:31.590Z,6.11
2023-03-15T19:21:58.852Z,6.01
2023-03-15T19:24:25.398Z,6.39
2023-03-15T19:26:52.018Z,6.47
2023-03-15T19:29:18.556Z,6.31
2023-03-15T19:31:45.129Z,6.03
2023-03-15T19:34:11.687Z,6.28
2023-03-15T19:36:38.277Z,6.40
2023-03-15T19:39:07.129Z,6.40
2023-03-15T19:41:33.786Z,6.50
2023-03-15T19:44:00.366Z,5.88
2023-03-15T19:46:26.979Z,5.60
2023-03-15T19:48:53.629Z,5.58
2023-03-15T19:51:20.967Z,5.74
2023-03-15T19:53:47.553Z,6.06
2023-03-15T19:56:14.240Z,6.09
2023-03-15T19:58:40.850Z,5.97
2023-03-15T20:01:07.719Z,5.90
2023-03-15T20:03:35.312Z,5.22
2023-03-15T20:06:07.664Z,6.06
2023-03-15T20:08:34.310Z,6.29
2023-03-15T20:11:02.040Z,6.20
2023-03-15T20:13:28.782Z,6.03
2023-03-15T20:15:55.487Z,6.08
2023-03-15T20:18:22.243Z,6.28
2023-03-15T20:20:50.592Z,5.80
2023-03-15T20:23:18.537Z,5.44
2023-03-15T20:25:45.166Z,5.89
2023-03-15T20:28:12.035Z,5.66
2023-03-15T20:30:39.992Z,5.56
2023-03-15T20:33:07.509Z,5.65
2023-03-15T20:35:38.081Z,5.26
2023-03-15T20:38:07.418Z,5.44
2023-03-15T20:40:38.447Z,5.56
2023-03-15T20:43:05.804Z,5.65
2023-03-15T20:45:33.225Z,6.05
2023-03-15T20:48:00.828Z,6.14
2023-03-15T20:50:27.465Z,6.14
2023-03-15T20:52:54.009Z,6.04
2023-03-15T20:55:21.146Z,5.91
2023-03-15T20:57:47.678Z,6.01
2023-03-15T21:00:18.305Z,5.96
2023-03-15T21:02:46.593Z,5.87
2023-03-15T21:05:13.919Z,5.71
2023-03-15T21:07:41.545Z,5.72
2023-03-15T21:10:10.057Z,5.72
2023-03-15T21:12:37.482Z,5.48
2023-03-15T21:15:05.014Z,5.60
2023-03-15T21:17:31.760Z,5.52
2023-03-15T21:19:58.480Z,5.38
2023-03-15T21:22:25.069Z,5.47
2023-03-15T21:24:55.853Z,5.63
2023-03-15T21:27:26.033Z,5.55
2023-03-15T21:29:52.812Z,5.57
2023-03-15T21:32:19.412Z,5.57
2023-03-15T21:34:46.024Z,4.86
2023-03-15T21:37:12.625Z,4.72
2023-03-15T21:39:39.221Z,5.35
2023-03-15T21:42:05.926Z,5.53
2023-03-15T21:44:36.234Z,5.47
2023-03-15T21:47:04.568Z,5.62
2023-03-15T21:49:34.723Z,5.65
2023-03-15T21:52:02.374Z,5.20
2023-03-15T21:54:29.410Z,5.37
2023-03-15T21:56:56.417Z,4.98
2023-03-15T21:59:27.924Z,5.25
2023-03-15T22:01:55.179Z,5.37
2023-03-15T22:04:22.030Z,5.60
2023-03-15T22:06:48.692Z,5.35
2023-03-15T22:09:15.245Z,5.50
2023-03-15T22:11:41.868Z,5.39
2023-03-15T22:14:08.720Z,5.19
2023-03-15T22:16:35.454Z,5.44
2023-03-15T22:19:03.338Z,5.55
2023-03-15T22:21:33.371Z,5.50
2023-03-15T22:23:59.919Z,4.94
2023-03-15T22:26:26.661Z,4.72
2023-03-15T22:28:53.230Z,4.90
2023-03-15T22:31:19.946Z,5.15
2023-03-15T22:33:46.547Z,4.93
2023-03-15T22:36:17.242Z,4.77
2023-03-15T22:38:50.110Z,4.66
2023-03-15T22:41:18.913Z,5.07
2023-03-15T22:43:45.923Z,5.17
2023-03-15T22:46:12.914Z,5.16
2023-03-15T22:48:39.538Z,5.06
2023-03-15T22:51:08.776Z,4.92
2023-03-15T22:53:35.587Z,4.90
2023-03-15T22:56:03.696Z,4.87
2023-03-15T22:58:30.531Z,4.72
2023-03-15T23:00:57.206Z,5.06
2023-03-15T23:03:24.216Z,5.08
2023-03-15T23:05:50.779Z,4.71
2023-03-15T23:08:17.313Z,4.71
2023-03-15T23:10:43.896Z,4.43
2023-03-15T23:13:10.591Z,4.65
2023-03-15T23:15:37.301Z,4.66
2023-03-15T23:18:05.245Z,4.91
2023-03-15T23:20:32.700Z,5.09
2023-03-15T23:22:59.319Z,4.87
2023-03-15T23:25:28.825Z,4.89
2023-03-15T23:27:56.378Z,4.80
2023-03-15T23:30:22.977Z,4.73
2023-03-15T23:32:51.927Z,4.85
2023-03-15T23:35:18.524Z,4.46
2023-03-15T23:37:45.115Z,4.46
2023-03-15T23:40:13.971Z,4.63
2023-03-15T23:42:41.957Z,4.53
2023-03-15T23:45:10.177Z,4.67
2023-03-15T23:47:36.830Z,4.70
2023-03-15T23:50:04.224Z,4.35
2023-03-15T23:52:30.969Z,4.49
2023-03-15T23:54:57.569Z,4.87
2023-03-15T23:57:24.104Z,4.27
2023-03-15T23:59:51.062Z,4.76
